sensor_id;sensor_type;location;lat;lon;timestamp;pressure;altitude;pressure_sealevel;temperature;humidity
34065;BME280;20339;49.754;20.158;2023-06-14T00:00:48;96558.75;;;8.46;83.08
34065;BME280;20339;49.754;20.158;2023-06-14T00:03:39;96558.69;;;8.48;83.72
34065;BME280;20339;49.754;20.158;2023-06-14T00:06:10;96557.36;;;8.49;84.03
34065;BME280;20339;49.754;20.158;2023-06-14T00:08:41;96563.11;;;8.51;84.27
34065;BME280;20339;49.754;20.158;2023-06-14T00:11:15;96556.71;;;8.54;84.44
34065;BME280;20339;49.754;20.158;2023-06-14T00:13:46;96562.09;;;8.57;84.54
34065;BME280;20339;49.754;20.158;2023-06-14T00:16:18;96552.81;;;8.61;84.73
34065;BME280;20339;49.754;20.158;2023-06-14T00:18:54;96558.66;;;8.65;85.09
34065;BME280;20339;49.754;20.158;2023-06-14T00:21:25;96553.84;;;8.75;85.25
34065;BME280;20339;49.754;20.158;2023-06-14T00:24:03;96551.91;;;8.89;85.41
34065;BME280;20339;49.754;20.158;2023-06-14T00:26:35;96549.06;;;9.02;85.45
34065;BME280;20339;49.754;20.158;2023-06-14T00:29:06;96544.73;;;9.13;85.55
34065;BME280;20339;49.754;20.158;2023-06-14T00:31:37;96539.66;;;9.16;85.42
34065;BME280;20339;49.754;20.158;2023-06-14T00:34:09;96542.37;;;9.14;85.35
34065;BME280;20339;49.754;20.158;2023-06-14T00:36:42;96540.52;;;9.09;85.39
34065;BME280;20339;49.754;20.158;2023-06-14T00:39:13;96541.14;;;9.13;85.47
34065;BME280;20339;49.754;20.158;2023-06-14T00:41:45;96537.64;;;9.19;85.37
34065;BME280;20339;49.754;20.158;2023-06-14T00:44:18;96536.60;;;9.25;85.26
34065;BME280;20339;49.754;20.158;2023-06-14T00:46:51;96534.89;;;9.32;85.27
34065;BME280;20339;49.754;20.158;2023-06-14T00:49:23;96533.69;;;9.37;85.12
34065;BME280;20339;49.754;20.158;2023-06-14T00:51:56;96530.43;;;9.33;84.83
34065;BME280;20339;49.754;20.158;2023-06-14T00:54:28;96529.91;;;9.27;84.96
34065;BME280;20339;49.754;20.158;2023-06-14T00:56:59;96529.92;;;9.28;85.12
34065;BME280;20339;49.754;20.158;2023-06-14T00:59:33;96525.39;;;9.35;85.28
34065;BME280;20339;49.754;20.158;2023-06-14T01:02:07;96529.27;;;9.44;85.43
34065;BME280;20339;49.754;20.158;2023-06-14T01:04:41;96526.41;;;9.42;85.27
34065;BME280;20339;49.754;20.158;2023-06-14T01:07:23;96523.59;;;9.34;85.46
34065;BME280;20339;49.754;20.158;2023-06-14T01:10:06;96521.73;;;9.28;85.80
34065;BME280;20339;49.754;20.158;2023-06-14T01:12:47;96519.36;;;9.21;86.02
34065;BME280;20339;49.754;20.158;2023-06-14T01:15:22;96519.18;;;9.18;86.40
34065;BME280;20339;49.754;20.158;2023-06-14T01:17:55;96515.54;;;9.16;86.58
34065;BME280;20339;49.754;20.158;2023-06-14T01:20:36;96518.98;;;9.16;86.93
34065;BME280;20339;49.754;20.158;2023-06-14T01:23:10;96514.31;;;9.18;87.23
34065;BME280;20339;49.754;20.158;2023-06-14T01:25:42;96512.91;;;9.23;87.60
34065;BME280;20339;49.754;20.158;2023-06-14T01:28:16;96510.98;;;9.29;87.73
34065;BME280;20339;49.754;20.158;2023-06-14T01:30:50;96508.84;;;9.34;87.82
34065;BME280;20339;49.754;20.158;2023-06-14T01:33:27;96509.18;;;9.38;87.89
34065;BME280;20339;49.754;20.158;2023-06-14T01:35:59;96505.52;;;9.41;88.20
34065;BME280;20339;49.754;20.158;2023-06-14T01:38:32;96506.14;;;9.46;88.31
34065;BME280;20339;49.754;20.158;2023-06-14T01:41:04;96506.45;;;9.53;88.19
34065;BME280;20339;49.754;20.158;2023-06-14T01:43:37;96501.66;;;9.61;88.13
34065;BME280;20339;49.754;20.158;2023-06-14T01:46:12;96505.91;;;9.65;87.93
34065;BME280;20339;49.754;20.158;2023-06-14T01:48:45;96505.03;;;9.69;87.90
34065;BME280;20339;49.754;20.158;2023-06-14T01:51:16;96503.80;;;9.73;87.78
34065;BME280;20339;49.754;20.158;2023-06-14T01:53:50;96503.76;;;9.73;87.80
34065;BME280;20339;49.754;20.158;2023-06-14T01:56:21;96504.39;;;9.79;87.86
34065;BME280;20339;49.754;20.158;2023-06-14T01:58:54;96504.20;;;9.84;87.68
34065;BME280;20339;49.754;20.158;2023-06-14T02:01:28;96505.64;;;9.87;87.57
34065;BME280;20339;49.754;20.158;2023-06-14T02:04:04;96505.29;;;9.89;87.58
34065;BME280;20339;49.754;20.158;2023-06-14T02:06:35;96510.17;;;9.93;87.66
34065;BME280;20339;49.754;20.158;2023-06-14T02:09:13;96505.21;;;9.92;87.32
34065;BME280;20339;49.754;20.158;2023-06-14T02:11:45;96504.78;;;9.84;86.77
34065;BME280;20339;49.754;20.158;2023-06-14T02:14:16;96504.16;;;9.76;86.53
34065;BME280;20339;49.754;20.158;2023-06-14T02:16:48;96506.77;;;9.71;86.21
34065;BME280;20339;49.754;20.158;2023-06-14T02:19:22;96507.62;;;9.63;86.06
34065;BME280;20339;49.754;20.158;2023-06-14T02:21:59;96508.61;;;9.57;85.99
34065;BME280;20339;49.754;20.158;2023-06-14T02:24:30;96507.88;;;9.47;85.82
34065;BME280;20339;49.754;20.158;2023-06-14T02:27:06;96508.94;;;9.37;85.96
34065;BME280;20339;49.754;20.158;2023-06-14T02:29:38;96508.32;;;9.33;86.23
34065;BME280;20339;49.754;20.158;2023-06-14T02:32:11;96511.30;;;9.37;86.50
34065;BME280;20339;49.754;20.158;2023-06-14T02:34:44;96511.28;;;9.43;86.58
34065;BME280;20339;49.754;20.158;2023-06-14T02:37:24;96515.18;;;9.47;86.53
34065;BME280;20339;49.754;20.158;2023-06-14T02:39:58;96515.65;;;9.47;86.47
34065;BME280;20339;49.754;20.158;2023-06-14T02:42:29;96513.81;;;9.46;86.51
34065;BME280;20339;49.754;20.158;2023-06-14T02:45:01;96508.99;;;9.46;86.66
34065;BME280;20339;49.754;20.158;2023-06-14T02:47:35;96506.66;;;9.47;86.63
34065;BME280;20339;49.754;20.158;2023-06-14T02:50:09;96506.14;;;9.47;86.60
34065;BME280;20339;49.754;20.158;2023-06-14T02:52:41;96504.08;;;9.42;86.56
34065;BME280;20339;49.754;20.158;2023-06-14T02:55:14;96502.01;;;9.36;86.54
34065;BME280;20339;49.754;20.158;2023-06-14T02:57:45;96502.95;;;9.26;86.52
34065;BME280;20339;49.754;20.158;2023-06-14T03:00:20;96505.04;;;9.22;86.85
34065;BME280;20339;49.754;20.158;2023-06-14T03:02:53;96503.66;;;9.20;86.91
34065;BME280;20339;49.754;20.158;2023-06-14T03:05:25;96503.37;;;9.18;86.89
34065;BME280;20339;49.754;20.158;2023-06-14T03:08:00;96504.48;;;9.11;86.85
34065;BME280;20339;49.754;20.158;2023-06-14T03:10:32;96505.02;;;8.99;86.96
34065;BME280;20339;49.754;20.158;2023-06-14T03:13:04;96502.23;;;8.94;87.37
34065;BME280;20339;49.754;20.158;2023-06-14T03:15:35;96503.80;;;8.99;87.54
34065;BME280;20339;49.754;20.158;2023-06-14T03:18:07;96508.65;;;9.04;87.43
34065;BME280;20339;49.754;20.158;2023-06-14T03:20:42;96509.80;;;9.07;87.56
34065;BME280;20339;49.754;20.158;2023-06-14T03:23:24;96509.70;;;9.07;87.44
34065;BME280;20339;49.754;20.158;2023-06-14T03:25:56;96508.16;;;9.08;87.37
34065;BME280;20339;49.754;20.158;2023-06-14T03:28:27;96506.63;;;9.07;87.19
34065;BME280;20339;49.754;20.158;2023-06-14T03:30:59;96508.39;;;9.05;87.28
34065;BME280;20339;49.754;20.158;2023-06-14T03:33:33;96505.81;;;8.98;87.35
34065;BME280;20339;49.754;20.158;2023-06-14T03:36:07;96503.61;;;8.93;87.73
34065;BME280;20339;49.754;20.158;2023-06-14T03:38:38;96505.23;;;8.96;88.05
34065;BME280;20339;49.754;20.158;2023-06-14T03:41:10;96504.69;;;9.03;88.33
34065;BME280;20339;49.754;20.158;2023-06-14T03:43:42;96505.92;;;9.12;88.60
34065;BME280;20339;49.754;20.158;2023-06-14T03:46:14;96508.95;;;9.20;88.65
34065;BME280;20339;49.754;20.158;2023-06-14T03:48:46;96510.45;;;9.29;88.62
34065;BME280;20339;49.754;20.158;2023-06-14T03:51:20;96509.58;;;9.34;88.66
34065;BME280;20339;49.754;20.158;2023-06-14T03:53:53;96507.84;;;9.41;88.64
34065;BME280;20339;49.754;20.158;2023-06-14T03:56:25;96508.15;;;9.47;88.65
34065;BME280;20339;49.754;20.158;2023-06-14T03:58:57;96504.98;;;9.51;88.65
34065;BME280;20339;49.754;20.158;2023-06-14T04:01:32;96509.41;;;9.57;88.76
34065;BME280;20339;49.754;20.158;2023-06-14T04:04:04;96509.07;;;9.62;88.73
34065;BME280;20339;49.754;20.158;2023-06-14T04:06:36;96507.56;;;9.65;88.69
34065;BME280;20339;49.754;20.158;2023-06-14T04:09:10;96509.36;;;9.65;88.71
34065;BME280;20339;49.754;20.158;2023-06-14T04:11:42;96509.45;;;9.66;88.82
34065;BME280;20339;49.754;20.158;2023-06-14T04:14:14;96511.17;;;9.70;89.09
34065;BME280;20339;49.754;20.158;2023-06-14T04:16:46;96517.13;;;9.75;89.23
34065;BME280;20339;49.754;20.158;2023-06-14T04:19:17;96514.74;;;9.76;89.25
34065;BME280;20339;49.754;20.158;2023-06-14T04:21:49;96516.21;;;9.77;89.48
34065;BME280;20339;49.754;20.158;2023-06-14T04:24:20;96511.25;;;9.82;89.64
34065;BME280;20339;49.754;20.158;2023-06-14T04:26:58;96513.66;;;9.89;89.80
34065;BME280;20339;49.754;20.158;2023-06-14T04:29:31;96517.48;;;9.94;89.91
34065;BME280;20339;49.754;20.158;2023-06-14T04:32:02;96521.69;;;9.96;89.84
34065;BME280;20339;49.754;20.158;2023-06-14T04:34:35;96520.92;;;9.98;89.93
34065;BME280;20339;49.754;20.158;2023-06-14T04:37:07;96526.86;;;10.02;90.12
34065;BME280;20339;49.754;20.158;2023-06-14T04:39:39;96523.60;;;10.04;90.14
34065;BME280;20339;49.754;20.158;2023-06-14T04:42:12;96524.91;;;10.06;90.18
34065;BME280;20339;49.754;20.158;2023-06-14T04:44:45;96526.38;;;10.08;90.15
34065;BME280;20339;49.754;20.158;2023-06-14T04:47:17;96523.56;;;10.08;89.93
34065;BME280;20339;49.754;20.158;2023-06-14T04:49:49;96521.53;;;10.10;89.84
34065;BME280;20339;49.754;20.158;2023-06-14T04:52:23;96517.27;;;10.11;89.82
34065;BME280;20339;49.754;20.158;2023-06-14T04:54:59;96514.48;;;10.14;89.78
34065;BME280;20339;49.754;20.158;2023-06-14T04:57:32;96511.23;;;10.15;90.00
34065;BME280;20339;49.754;20.158;2023-06-14T05:00:07;96502.36;;;10.19;90.59
34065;BME280;20339;49.754;20.158;2023-06-14T05:02:43;96500.94;;;10.27;91.11
34065;BME280;20339;49.754;20.158;2023-06-14T05:05:17;96508.20;;;10.37;91.52
34065;BME280;20339;49.754;20.158;2023-06-14T05:07:53;96513.23;;;10.46;91.79
34065;BME280;20339;49.754;20.158;2023-06-14T05:10:26;96513.94;;;10.54;91.85
34065;BME280;20339;49.754;20.158;2023-06-14T05:12:57;96520.63;;;10.59;91.71
34065;BME280;20339;49.754;20.158;2023-06-14T05:15:29;96518.12;;;10.60;91.14
34065;BME280;20339;49.754;20.158;2023-06-14T05:18:00;96514.49;;;10.56;90.71
34065;BME280;20339;49.754;20.158;2023-06-14T05:20:33;96515.52;;;10.54;90.68
34065;BME280;20339;49.754;20.158;2023-06-14T05:23:06;96516.58;;;10.57;90.72
34065;BME280;20339;49.754;20.158;2023-06-14T05:25:40;96521.29;;;10.61;90.90
34065;BME280;20339;49.754;20.158;2023-06-14T05:28:12;96523.16;;;10.65;91.21
34065;BME280;20339;49.754;20.158;2023-06-14T05:30:43;96525.23;;;10.70;91.40
34065;BME280;20339;49.754;20.158;2023-06-14T05:33:15;96525.77;;;10.71;91.33
34065;BME280;20339;49.754;20.158;2023-06-14T05:35:46;96531.15;;;10.74;91.54
34065;BME280;20339;49.754;20.158;2023-06-14T05:38:18;96529.20;;;10.77;91.57
34065;BME280;20339;49.754;20.158;2023-06-14T05:40:50;96533.95;;;10.74;91.37
34065;BME280;20339;49.754;20.158;2023-06-14T05:43:22;96533.95;;;10.75;91.54
34065;BME280;20339;49.754;20.158;2023-06-14T05:45:54;96540.08;;;10.76;91.38
34065;BME280;20339;49.754;20.158;2023-06-14T05:48:26;96543.21;;;10.70;90.73
34065;BME280;20339;49.754;20.158;2023-06-14T05:50:58;96541.94;;;10.60;90.16
34065;BME280;20339;49.754;20.158;2023-06-14T05:53:33;96540.33;;;10.55;90.25
34065;BME280;20339;49.754;20.158;2023-06-14T05:56:04;96540.66;;;10.53;90.24
34065;BME280;20339;49.754;20.158;2023-06-14T05:58:36;96540.79;;;10.51;90.29
34065;BME280;20339;49.754;20.158;2023-06-14T06:01:10;96542.88;;;10.53;90.52
34065;BME280;20339;49.754;20.158;2023-06-14T06:03:45;96547.96;;;10.54;90.37
34065;BME280;20339;49.754;20.158;2023-06-14T06:06:19;96549.35;;;10.53;90.18
34065;BME280;20339;49.754;20.158;2023-06-14T06:08:51;96555.92;;;10.53;90.16
34065;BME280;20339;49.754;20.158;2023-06-14T06:11:22;96554.33;;;10.53;90.04
34065;BME280;20339;49.754;20.158;2023-06-14T06:13:54;96556.20;;;10.51;90.02
34065;BME280;20339;49.754;20.158;2023-06-14T06:16:26;96557.02;;;10.51;90.00
34065;BME280;20339;49.754;20.158;2023-06-14T06:18:57;96555.63;;;10.51;89.98
34065;BME280;20339;49.754;20.158;2023-06-14T06:21:29;96559.08;;;10.50;90.00
34065;BME280;20339;49.754;20.158;2023-06-14T06:24:00;96562.20;;;10.51;90.08
34065;BME280;20339;49.754;20.158;2023-06-14T06:26:33;96563.09;;;10.51;90.06
34065;BME280;20339;49.754;20.158;2023-06-14T06:29:04;96564.36;;;10.51;90.11
34065;BME280;20339;49.754;20.158;2023-06-14T06:31:36;96572.27;;;10.51;90.17
34065;BME280;20339;49.754;20.158;2023-06-14T06:34:08;96573.30;;;10.53;90.46
34065;BME280;20339;49.754;20.158;2023-06-14T06:36:42;96574.83;;;10.57;90.59
34065;BME280;20339;49.754;20.158;2023-06-14T06:39:16;96577.71;;;10.60;90.59
34065;BME280;20339;49.754;20.158;2023-06-14T06:41:48;96580.66;;;10.62;90.75
34065;BME280;20339;49.754;20.158;2023-06-14T06:44:20;96581.78;;;10.67;90.96
34065;BME280;20339;49.754;20.158;2023-06-14T06:46:51;96584.56;;;10.71;91.26
34065;BME280;20339;49.754;20.158;2023-06-14T06:49:23;96582.02;;;10.77;91.44
34065;BME280;20339;49.754;20.158;2023-06-14T06:52:06;96581.35;;;10.79;91.61
34065;BME280;20339;49.754;20.158;2023-06-14T06:54:40;96578.83;;;10.82;91.76
34065;BME280;20339;49.754;20.158;2023-06-14T06:57:14;96581.94;;;10.84;91.86
34065;BME280;20339;49.754;20.158;2023-06-14T06:59:46;96580.73;;;10.85;92.05
34065;BME280;20339;49.754;20.158;2023-06-14T07:02:18;96582.86;;;10.88;92.40
34065;BME280;20339;49.754;20.158;2023-06-14T07:04:49;96583.94;;;10.92;92.53
34065;BME280;20339;49.754;20.158;2023-06-14T07:07:21;96587.07;;;10.96;92.81
34065;BME280;20339;49.754;20.158;2023-06-14T07:09:53;96589.52;;;10.98;93.03
34065;BME280;20339;49.754;20.158;2023-06-14T07:12:27;96589.71;;;10.99;93.25
34065;BME280;20339;49.754;20.158;2023-06-14T07:15:04;96592.65;;;11.02;93.57
34065;BME280;20339;49.754;20.158;2023-06-14T07:17:36;96598.76;;;11.06;94.19
34065;BME280;20339;49.754;20.158;2023-06-14T07:20:12;96601.15;;;11.10;94.34
34065;BME280;20339;49.754;20.158;2023-06-14T07:22:54;96599.72;;;11.10;94.41
34065;BME280;20339;49.754;20.158;2023-06-14T07:25:25;96603.88;;;11.09;94.39
34065;BME280;20339;49.754;20.158;2023-06-14T07:27:57;96601.75;;;11.05;94.47
34065;BME280;20339;49.754;20.158;2023-06-14T07:30:28;96599.90;;;10.99;94.68
34065;BME280;20339;49.754;20.158;2023-06-14T07:32:59;96603.89;;;10.96;94.83
34065;BME280;20339;49.754;20.158;2023-06-14T07:35:31;96603.90;;;10.90;94.93
34065;BME280;20339;49.754;20.158;2023-06-14T07:38:03;96606.65;;;10.87;95.26
34065;BME280;20339;49.754;20.158;2023-06-14T07:40:34;96607.83;;;10.85;95.63
34065;BME280;20339;49.754;20.158;2023-06-14T07:43:06;96609.95;;;10.83;95.98
34065;BME280;20339;49.754;20.158;2023-06-14T07:45:37;96610.32;;;10.83;96.20
34065;BME280;20339;49.754;20.158;2023-06-14T07:48:09;96612.45;;;10.84;96.51
34065;BME280;20339;49.754;20.158;2023-06-14T07:50:40;96611.17;;;10.85;96.70
34065;BME280;20339;49.754;20.158;2023-06-14T07:53:12;96615.20;;;10.86;97.08
34065;BME280;20339;49.754;20.158;2023-06-14T07:55:43;96614.51;;;10.85;97.36
34065;BME280;20339;49.754;20.158;2023-06-14T07:58:17;96615.55;;;10.87;97.72
34065;BME280;20339;49.754;20.158;2023-06-14T08:00:53;96617.37;;;10.91;98.06
34065;BME280;20339;49.754;20.158;2023-06-14T08:03:25;96615.90;;;10.93;98.31
34065;BME280;20339;49.754;20.158;2023-06-14T08:05:57;96619.58;;;10.92;98.44
34065;BME280;20339;49.754;20.158;2023-06-14T08:08:28;96619.25;;;10.93;98.80
34065;BME280;20339;49.754;20.158;2023-06-14T08:11:00;96623.14;;;10.98;99.19
34065;BME280;20339;49.754;20.158;2023-06-14T08:13:32;96625.30;;;11.05;99.43
34065;BME280;20339;49.754;20.158;2023-06-14T08:16:04;96621.51;;;11.07;99.42
34065;BME280;20339;49.754;20.158;2023-06-14T08:18:36;96628.42;;;11.10;99.57
34065;BME280;20339;49.754;20.158;2023-06-14T08:21:08;96622.98;;;11.14;99.84
34065;BME280;20339;49.754;20.158;2023-06-14T08:23:39;96623.52;;;11.19;99.90
34065;BME280;20339;49.754;20.158;2023-06-14T08:26:12;96626.75;;;11.24;100.00
34065;BME280;20339;49.754;20.158;2023-06-14T08:28:44;96626.15;;;11.26;99.98
34065;BME280;20339;49.754;20.158;2023-06-14T08:31:16;96627.21;;;11.25;99.99
34065;BME280;20339;49.754;20.158;2023-06-14T08:33:47;96631.55;;;11.26;100.00
34065;BME280;20339;49.754;20.158;2023-06-14T08:36:21;96632.05;;;11.32;100.00
34065;BME280;20339;49.754;20.158;2023-06-14T08:38:53;96634.67;;;11.38;100.00
34065;BME280;20339;49.754;20.158;2023-06-14T08:41:24;96635.05;;;11.43;100.00
34065;BME280;20339;49.754;20.158;2023-06-14T08:44:02;96639.65;;;11.49;100.00
34065;BME280;20339;49.754;20.158;2023-06-14T08:46:34;96640.69;;;11.56;100.00
34065;BME280;20339;49.754;20.158;2023-06-14T08:49:08;96641.08;;;11.63;100.00
34065;BME280;20339;49.754;20.158;2023-06-14T08:51:42;96643.11;;;11.63;100.00
34065;BME280;20339;49.754;20.158;2023-06-14T08:54:17;96644.11;;;11.58;100.00
34065;BME280;20339;49.754;20.158;2023-06-14T08:56:51;96646.98;;;11.58;100.00
34065;BME280;20339;49.754;20.158;2023-06-14T08:59:28;96647.99;;;11.62;100.00
34065;BME280;20339;49.754;20.158;2023-06-14T09:02:01;96649.85;;;11.66;100.00
34065;BME280;20339;49.754;20.158;2023-06-14T09:04:33;96651.06;;;11.66;100.00
34065;BME280;20339;49.754;20.158;2023-06-14T09:07:06;96652.27;;;11.69;100.00
34065;BME280;20339;49.754;20.158;2023-06-14T09:09:41;96654.65;;;11.75;100.00
34065;BME280;20339;49.754;20.158;2023-06-14T09:12:16;96656.19;;;11.81;100.00
34065;BME280;20339;49.754;20.158;2023-06-14T09:14:48;96659.27;;;11.83;100.00
34065;BME280;20339;49.754;20.158;2023-06-14T09:17:19;96659.46;;;11.84;100.00
34065;BME280;20339;49.754;20.158;2023-06-14T09:19:51;96652.92;;;11.88;100.00
34065;BME280;20339;49.754;20.158;2023-06-14T09:22:24;96650.44;;;11.95;100.00
34065;BME280;20339;49.754;20.158;2023-06-14T09:24:56;96648.34;;;12.05;100.00
34065;BME280;20339;49.754;20.158;2023-06-14T09:27:28;96646.53;;;12.17;100.00
34065;BME280;20339;49.754;20.158;2023-06-14T09:30:00;96648.91;;;12.29;100.00
34065;BME280;20339;49.754;20.158;2023-06-14T09:32:38;96649.65;;;12.44;100.00
34065;BME280;20339;49.754;20.158;2023-06-14T09:35:10;96643.05;;;12.60;100.00
34065;BME280;20339;49.754;20.158;2023-06-14T09:37:42;96644.77;;;12.68;100.00
34065;BME280;20339;49.754;20.158;2023-06-14T09:40:14;96646.90;;;12.77;100.00
34065;BME280;20339;49.754;20.158;2023-06-14T09:42:51;96646.66;;;12.86;100.00
34065;BME280;20339;49.754;20.158;2023-06-14T09:45:26;96640.44;;;12.89;99.61
34065;BME280;20339;49.754;20.158;2023-06-14T09:47:59;96641.55;;;12.87;99.04
34065;BME280;20339;49.754;20.158;2023-06-14T09:50:34;96638.57;;;12.86;98.86
34065;BME280;20339;49.754;20.158;2023-06-14T09:53:10;96637.86;;;12.85;98.42
34065;BME280;20339;49.754;20.158;2023-06-14T09:55:42;96637.80;;;12.90;98.78
34065;BME280;20339;49.754;20.158;2023-06-14T09:58:15;96641.87;;;13.01;99.22
34065;BME280;20339;49.754;20.158;2023-06-14T10:00:49;96639.48;;;13.14;99.09
34065;BME280;20339;49.754;20.158;2023-06-14T10:03:29;96639.79;;;13.25;98.73
34065;BME280;20339;49.754;20.158;2023-06-14T10:06:05;96640.83;;;13.35;98.48
34065;BME280;20339;49.754;20.158;2023-06-14T10:08:41;96642.05;;;13.42;97.95
34065;BME280;20339;49.754;20.158;2023-06-14T10:11:14;96639.82;;;13.41;97.48
34065;BME280;20339;49.754;20.158;2023-06-14T10:13:47;96637.95;;;13.44;97.53
34065;BME280;20339;49.754;20.158;2023-06-14T10:16:23;96636.48;;;13.51;97.49
34065;BME280;20339;49.754;20.158;2023-06-14T10:19:03;96632.66;;;13.50;96.79
34065;BME280;20339;49.754;20.158;2023-06-14T10:21:54;96634.52;;;13.45;96.26
34065;BME280;20339;49.754;20.158;2023-06-14T10:24:32;96638.97;;;13.44;96.46
34065;BME280;20339;49.754;20.158;2023-06-14T10:27:06;96639.86;;;13.49;96.71
34065;BME280;20339;49.754;20.158;2023-06-14T10:30:04;96641.11;;;13.51;95.98
34065;BME280;20339;49.754;20.158;2023-06-14T10:32:36;96644.17;;;13.53;95.56
34065;BME280;20339;49.754;20.158;2023-06-14T10:35:27;96644.70;;;13.56;95.19
34065;BME280;20339;49.754;20.158;2023-06-14T10:38:11;96646.09;;;13.58;95.05
34065;BME280;20339;49.754;20.158;2023-06-14T10:40:43;96642.56;;;13.63;94.94
34065;BME280;20339;49.754;20.158;2023-06-14T10:43:24;96641.08;;;13.70;94.69
34065;BME280;20339;49.754;20.158;2023-06-14T10:46:15;96641.47;;;13.71;94.12
34065;BME280;20339;49.754;20.158;2023-06-14T10:48:47;96635.27;;;13.76;94.03
34065;BME280;20339;49.754;20.158;2023-06-14T10:51:19;96631.75;;;13.80;93.83
34065;BME280;20339;49.754;20.158;2023-06-14T10:53:51;96629.16;;;13.87;93.78
34065;BME280;20339;49.754;20.158;2023-06-14T10:56:28;96627.58;;;13.97;93.71
34065;BME280;20339;49.754;20.158;2023-06-14T10:59:02;96627.23;;;14.10;93.68
34065;BME280;20339;49.754;20.158;2023-06-14T11:01:45;96627.63;;;14.21;93.15
34065;BME280;20339;49.754;20.158;2023-06-14T11:04:27;96626.95;;;14.27;92.54
34065;BME280;20339;49.754;20.158;2023-06-14T11:07:22;96623.11;;;14.32;92.64
34065;BME280;20339;49.754;20.158;2023-06-14T11:10:09;96622.62;;;14.34;92.16
34065;BME280;20339;49.754;20.158;2023-06-14T11:12:42;96619.04;;;14.43;92.57
34065;BME280;20339;49.754;20.158;2023-06-14T11:15:18;96617.87;;;14.51;92.40
34065;BME280;20339;49.754;20.158;2023-06-14T11:17:53;96615.98;;;14.54;92.21
34065;BME280;20339;49.754;20.158;2023-06-14T11:20:29;96618.02;;;14.60;92.22
34065;BME280;20339;49.754;20.158;2023-06-14T11:23:01;96619.79;;;14.63;91.73
34065;BME280;20339;49.754;20.158;2023-06-14T11:25:33;96618.48;;;14.60;91.37
34065;BME280;20339;49.754;20.158;2023-06-14T11:28:05;96613.16;;;14.62;91.50
34065;BME280;20339;49.754;20.158;2023-06-14T11:30:37;96613.39;;;14.57;91.12
34065;BME280;20339;49.754;20.158;2023-06-14T11:33:11;96611.14;;;14.60;91.41
34065;BME280;20339;49.754;20.158;2023-06-14T11:35:43;96606.27;;;14.71;92.27
34065;BME280;20339;49.754;20.158;2023-06-14T11:38:15;96605.95;;;14.80;91.82
34065;BME280;20339;49.754;20.158;2023-06-14T11:40:47;96605.15;;;14.82;91.39
34065;BME280;20339;49.754;20.158;2023-06-14T11:43:19;96606.44;;;14.82;91.10
34065;BME280;20339;49.754;20.158;2023-06-14T11:45:52;96607.47;;;14.83;91.02
34065;BME280;20339;49.754;20.158;2023-06-14T11:48:24;96613.13;;;14.83;90.93
34065;BME280;20339;49.754;20.158;2023-06-14T11:51:06;96611.52;;;14.85;90.69
34065;BME280;20339;49.754;20.158;2023-06-14T11:53:38;96609.44;;;14.88;90.05
34065;BME280;20339;49.754;20.158;2023-06-14T11:56:10;96602.08;;;14.94;89.76
34065;BME280;20339;49.754;20.158;2023-06-14T11:58:44;96598.37;;;15.05;89.48
34065;BME280;20339;49.754;20.158;2023-06-14T12:01:18;96590.69;;;15.07;88.90
34065;BME280;20339;49.754;20.158;2023-06-14T12:03:51;96591.05;;;15.16;89.47
34065;BME280;20339;49.754;20.158;2023-06-14T12:06:31;96588.54;;;15.22;89.45
34065;BME280;20339;49.754;20.158;2023-06-14T12:09:09;96594.80;;;15.23;88.91
34065;BME280;20339;49.754;20.158;2023-06-14T12:11:43;96592.30;;;15.21;88.58
34065;BME280;20339;49.754;20.158;2023-06-14T12:14:14;96590.33;;;15.14;88.14
34065;BME280;20339;49.754;20.158;2023-06-14T12:16:46;96593.13;;;15.05;87.52
34065;BME280;20339;49.754;20.158;2023-06-14T12:19:18;96592.20;;;15.04;87.78
34065;BME280;20339;49.754;20.158;2023-06-14T12:21:49;96587.65;;;15.13;88.00
34065;BME280;20339;49.754;20.158;2023-06-14T12:24:22;96582.02;;;15.11;87.23
34065;BME280;20339;49.754;20.158;2023-06-14T12:27:00;96578.65;;;15.16;87.87
34065;BME280;20339;49.754;20.158;2023-06-14T12:29:33;96583.41;;;15.39;88.82
34065;BME280;20339;49.754;20.158;2023-06-14T12:32:05;96584.84;;;15.58;88.47
34065;BME280;20339;49.754;20.158;2023-06-14T12:34:37;96582.82;;;15.73;88.23
34065;BME280;20339;49.754;20.158;2023-06-14T12:37:11;96575.65;;;15.91;88.47
34065;BME280;20339;49.754;20.158;2023-06-14T12:39:44;96575.70;;;16.09;88.50
34065;BME280;20339;49.754;20.158;2023-06-14T12:42:18;96574.67;;;16.14;87.02
34065;BME280;20339;49.754;20.158;2023-06-14T12:44:55;96570.45;;;16.08;86.04
34065;BME280;20339;49.754;20.158;2023-06-14T12:47:27;96567.09;;;16.01;85.39
34065;BME280;20339;49.754;20.158;2023-06-14T12:49:58;96563.30;;;15.98;85.12
34065;BME280;20339;49.754;20.158;2023-06-14T12:52:30;96562.63;;;16.01;85.13
34065;BME280;20339;49.754;20.158;2023-06-14T12:55:01;96564.10;;;15.98;84.34
34065;BME280;20339;49.754;20.158;2023-06-14T12:57:32;96561.09;;;15.94;84.37
34065;BME280;20339;49.754;20.158;2023-06-14T13:00:08;96559.23;;;15.97;84.49
34065;BME280;20339;49.754;20.158;2023-06-14T13:02:42;96558.27;;;16.11;84.67
34065;BME280;20339;49.754;20.158;2023-06-14T13:05:17;96555.02;;;16.31;84.95
34065;BME280;20339;49.754;20.158;2023-06-14T13:07:48;96550.47;;;16.49;84.67
34065;BME280;20339;49.754;20.158;2023-06-14T13:10:20;96551.83;;;16.49;83.57
34065;BME280;20339;49.754;20.158;2023-06-14T13:12:51;96544.17;;;16.50;82.55
34065;BME280;20339;49.754;20.158;2023-06-14T13:15:23;96553.19;;;16.66;82.37
34065;BME280;20339;49.754;20.158;2023-06-14T13:17:56;96552.33;;;16.82;82.31
34065;BME280;20339;49.754;20.158;2023-06-14T13:20:28;96545.94;;;16.85;81.10
34065;BME280;20339;49.754;20.158;2023-06-14T13:23:04;96554.13;;;16.92;79.95
34065;BME280;20339;49.754;20.158;2023-06-14T13:25:37;96550.27;;;16.99;79.05